sensor_id;sensor_type;location;lat;lon;timestamp;temperature;humidity
45765;DHT22;31474;45.332;10.230;2023-06-26T00:00:15;25.00;95.90
45765;DHT22;31474;45.332;10.230;2023-06-26T00:02:41;25.10;95.90
45765;DHT22;31474;45.332;10.230;2023-06-26T00:05:07;25.00;95.80
45765;DHT22;31474;45.332;10.230;2023-06-26T00:07:33;25.00;95.80
45765;DHT22;31474;45.332;10.230;2023-06-26T00:10:02;25.00;95.80
45765;DHT22;31474;45.332;10.230;2023-06-26T00:12:29;24.90;95.90
45765;DHT22;31474;45.332;10.230;2023-06-26T00:14:55;24.90;95.80
45765;DHT22;31474;45.332;10.230;2023-06-26T00:17:21;24.90;95.80
45765;DHT22;31474;45.332;10.230;2023-06-26T00:19:47;24.90;95.80
45765;DHT22;31474;45.332;10.230;2023-06-26T00:22:12;24.90;95.90
45765;DHT22;31474;45.332;10.230;2023-06-26T00:24:38;24.90;95.90
45765;DHT22;31474;45.332;10.230;2023-06-26T00:27:04;24.90;95.90
45765;DHT22;31474;45.332;10.230;2023-06-26T00:29:29;24.90;95.90
45765;DHT22;31474;45.332;10.230;2023-06-26T00:31:55;24.90;95.80
45765;DHT22;31474;45.332;10.230;2023-06-26T00:34:20;24.90;95.90
45765;DHT22;31474;45.332;10.230;2023-06-26T00:36:46;24.80;95.90
45765;DHT22;31474;45.332;10.230;2023-06-26T00:39:12;24.80;95.80
45765;DHT22;31474;45.332;10.230;2023-06-26T00:41:38;24.80;96.00
45765;DHT22;31474;45.332;10.230;2023-06-26T00:44:04;24.80;96.00
45765;DHT22;31474;45.332;10.230;2023-06-26T00:46:31;24.80;96.00
45765;DHT22;31474;45.332;10.230;2023-06-26T00:48:59;24.70;96.00
45765;DHT22;31474;45.332;10.230;2023-06-26T00:51:29;24.70;96.10
45765;DHT22;31474;45.332;10.230;2023-06-26T00:53:55;24.80;96.30
45765;DHT22;31474;45.332;10.230;2023-06-26T00:56:22;24.80;96.00
45765;DHT22;31474;45.332;10.230;2023-06-26T00:58:47;24.70;95.90
45765;DHT22;31474;45.332;10.230;2023-06-26T01:01:13;24.70;95.90
45765;DHT22;31474;45.332;10.230;2023-06-26T01:03:46;24.60;96.00
45765;DHT22;31474;45.332;10.230;2023-06-26T01:06:17;24.60;96.30
45765;DHT22;31474;45.332;10.230;2023-06-26T01:08:44;24.60;96.20
45765;DHT22;31474;45.332;10.230;2023-06-26T01:11:10;24.60;96.10
45765;DHT22;31474;45.332;10.230;2023-06-26T01:13:37;24.60;96.10
45765;DHT22;31474;45.332;10.230;2023-06-26T01:16:04;24.60;96.10
45765;DHT22;31474;45.332;10.230;2023-06-26T01:18:31;24.60;96.20
45765;DHT22;31474;45.332;10.230;2023-06-26T01:20:58;24.60;96.40
45765;DHT22;31474;45.332;10.230;2023-06-26T01:23:29;24.60;96.20
45765;DHT22;31474;45.332;10.230;2023-06-26T01:26:19;24.60;96.10
45765;DHT22;31474;45.332;10.230;2023-06-26T01:28:45;24.60;96.90
45765;DHT22;31474;45.332;10.230;2023-06-26T01:31:12;24.50;96.20
45765;DHT22;31474;45.332;10.230;2023-06-26T01:33:39;24.40;96.40
45765;DHT22;31474;45.332;10.230;2023-06-26T01:36:06;24.30;96.40
45765;DHT22;31474;45.332;10.230;2023-06-26T01:38:32;24.40;96.40
45765;DHT22;31474;45.332;10.230;2023-06-26T01:40:58;24.30;96.40
45765;DHT22;31474;45.332;10.230;2023-06-26T01:51:45;24.20;97.20
45765;DHT22;31474;45.332;10.230;2023-06-26T01:54:18;24.20;96.60
45765;DHT22;31474;45.332;10.230;2023-06-26T01:56:45;24.30;96.80
45765;DHT22;31474;45.332;10.230;2023-06-26T01:59:14;24.20;96.60
45765;DHT22;31474;45.332;10.230;2023-06-26T02:01:40;24.20;96.50
45765;DHT22;31474;45.332;10.230;2023-06-26T02:04:06;24.20;96.60
45765;DHT22;31474;45.332;10.230;2023-06-26T02:06:31;24.20;96.60
45765;DHT22;31474;45.332;10.230;2023-06-26T02:08:57;24.10;96.60
45765;DHT22;31474;45.332;10.230;2023-06-26T02:11:23;24.10;96.60
45765;DHT22;31474;45.332;10.230;2023-06-26T02:13:49;24.20;96.70
45765;DHT22;31474;45.332;10.230;2023-06-26T02:16:14;24.20;96.60
45765;DHT22;31474;45.332;10.230;2023-06-26T02:18:40;24.20;96.70
45765;DHT22;31474;45.332;10.230;2023-06-26T02:21:06;24.20;96.70
45765;DHT22;31474;45.332;10.230;2023-06-26T02:23:32;24.00;96.70
45765;DHT22;31474;45.332;10.230;2023-06-26T02:25:58;23.90;96.90
45765;DHT22;31474;45.332;10.230;2023-06-26T02:28:24;23.80;96.90
45765;DHT22;31474;45.332;10.230;2023-06-26T02:30:50;23.70;97.30
45765;DHT22;31474;45.332;10.230;2023-06-26T02:33:15;23.70;97.30
45765;DHT22;31474;45.332;10.230;2023-06-26T02:35:41;23.70;97.10
45765;DHT22;31474;45.332;10.230;2023-06-26T02:38:06;23.80;97.10
45765;DHT22;31474;45.332;10.230;2023-06-26T02:40:32;23.80;97.10
45765;DHT22;31474;45.332;10.230;2023-06-26T02:42:58;23.90;97.10
45765;DHT22;31474;45.332;10.230;2023-06-26T02:45:24;23.90;97.00
45765;DHT22;31474;45.332;10.230;2023-06-26T02:47:50;23.90;96.90
45765;DHT22;31474;45.332;10.230;2023-06-26T02:50:15;23.90;96.90
45765;DHT22;31474;45.332;10.230;2023-06-26T02:52:41;23.80;96.90
45765;DHT22;31474;45.332;10.230;2023-06-26T02:55:07;23.80;96.90
45765;DHT22;31474;45.332;10.230;2023-06-26T02:57:32;23.80;97.00
45765;DHT22;31474;45.332;10.230;2023-06-26T02:59:58;23.80;97.00
45765;DHT22;31474;45.332;10.230;2023-06-26T03:02:24;23.80;97.00
45765;DHT22;31474;45.332;10.230;2023-06-26T03:04:49;23.80;97.10
45765;DHT22;31474;45.332;10.230;2023-06-26T03:07:15;23.70;97.10
45765;DHT22;31474;45.332;10.230;2023-06-26T03:09:41;23.80;97.10
45765;DHT22;31474;45.332;10.230;2023-06-26T03:12:07;23.70;97.00
45765;DHT22;31474;45.332;10.230;2023-06-26T03:14:33;23.70;97.10
45765;DHT22;31474;45.332;10.230;2023-06-26T03:16:59;23.70;97.00
45765;DHT22;31474;45.332;10.230;2023-06-26T03:19:28;23.80;97.10
45765;DHT22;31474;45.332;10.230;2023-06-26T03:21:54;23.80;97.00
45765;DHT22;31474;45.332;10.230;2023-06-26T03:24:20;23.80;97.00
45765;DHT22;31474;45.332;10.230;2023-06-26T03:26:46;23.70;97.00
45765;DHT22;31474;45.332;10.230;2023-06-26T03:29:12;23.70;97.00
45765;DHT22;31474;45.332;10.230;2023-06-26T03:31:37;23.70;97.00
45765;DHT22;31474;45.332;10.230;2023-06-26T03:34:03;23.70;97.10
45765;DHT22;31474;45.332;10.230;2023-06-26T03:36:29;23.70;97.10
45765;DHT22;31474;45.332;10.230;2023-06-26T03:38:54;23.70;97.10
45765;DHT22;31474;45.332;10.230;2023-06-26T03:41:23;23.70;97.10
45765;DHT22;31474;45.332;10.230;2023-06-26T03:43:48;23.70;97.10
45765;DHT22;31474;45.332;10.230;2023-06-26T03:46:14;23.70;97.10
45765;DHT22;31474;45.332;10.230;2023-06-26T03:48:40;23.70;97.20
45765;DHT22;31474;45.332;10.230;2023-06-26T03:51:06;23.60;97.00
45765;DHT22;31474;45.332;10.230;2023-06-26T03:53:33;23.60;97.00
45765;DHT22;31474;45.332;10.230;2023-06-26T03:55:58;23.70;97.10
45765;DHT22;31474;45.332;10.230;2023-06-26T03:58:24;23.70;97.00
45765;DHT22;31474;45.332;10.230;2023-06-26T04:00:51;23.70;97.00
45765;DHT22;31474;45.332;10.230;2023-06-26T04:03:17;23.70;97.00
45765;DHT22;31474;45.332;10.230;2023-06-26T04:05:42;23.70;97.00
45765;DHT22;31474;45.332;10.230;2023-06-26T04:08:08;23.60;97.10
45765;DHT22;31474;45.332;10.230;2023-06-26T04:10:34;23.60;97.20
45765;DHT22;31474;45.332;10.230;2023-06-26T04:13:01;23.50;97.10
45765;DHT22;31474;45.332;10.230;2023-06-26T04:15:27;23.50;97.10
45765;DHT22;31474;45.332;10.230;2023-06-26T04:17:53;23.70;97.30
45765;DHT22;31474;45.332;10.230;2023-06-26T04:20:19;23.70;97.30
45765;DHT22;31474;45.332;10.230;2023-06-26T04:22:44;23.80;97.30
45765;DHT22;31474;45.332;10.230;2023-06-26T04:25:10;23.80;97.20
45765;DHT22;31474;45.332;10.230;2023-06-26T04:27:37;23.90;97.30
45765;DHT22;31474;45.332;10.230;2023-06-26T04:30:03;24.00;97.00
45765;DHT22;31474;45.332;10.230;2023-06-26T04:32:29;24.00;97.10
45765;DHT22;31474;45.332;10.230;2023-06-26T04:34:54;24.10;97.00
45765;DHT22;31474;45.332;10.230;2023-06-26T04:37:21;24.20;97.00
45765;DHT22;31474;45.332;10.230;2023-06-26T04:39:47;24.30;96.80
45765;DHT22;31474;45.332;10.230;2023-06-26T04:42:13;24.40;96.80
45765;DHT22;31474;45.332;10.230;2023-06-26T04:44:38;24.50;96.80
45765;DHT22;31474;45.332;10.230;2023-06-26T04:47:06;24.60;96.80
45765;DHT22;31474;45.332;10.230;2023-06-26T04:49:32;24.70;96.70
45765;DHT22;31474;45.332;10.230;2023-06-26T04:51:57;24.80;96.70
45765;DHT22;31474;45.332;10.230;2023-06-26T04:54:25;24.80;96.80
45765;DHT22;31474;45.332;10.230;2023-06-26T04:56:51;24.90;96.80
45765;DHT22;31474;45.332;10.230;2023-06-26T04:59:17;25.10;97.00
45765;DHT22;31474;45.332;10.230;2023-06-26T05:01:42;25.20;96.60
45765;DHT22;31474;45.332;10.230;2023-06-26T05:04:13;25.30;96.50
45765;DHT22;31474;45.332;10.230;2023-06-26T05:06:40;25.40;96.60
45765;DHT22;31474;45.332;10.230;2023-06-26T05:09:05;25.60;96.10
45765;DHT22;31474;45.332;10.230;2023-06-26T05:11:31;25.70;96.10
45765;DHT22;31474;45.332;10.230;2023-06-26T05:13:56;25.70;95.90
45765;DHT22;31474;45.332;10.230;2023-06-26T05:16:22;25.80;95.70
45765;DHT22;31474;45.332;10.230;2023-06-26T05:18:48;25.80;95.70
45765;DHT22;31474;45.332;10.230;2023-06-26T05:21:13;25.90;95.60
45765;DHT22;31474;45.332;10.230;2023-06-26T05:23:41;25.90;95.60
45765;DHT22;31474;45.332;10.230;2023-06-26T05:26:10;26.00;95.80
45765;DHT22;31474;45.332;10.230;2023-06-26T05:28:36;26.10;95.60
45765;DHT22;31474;45.332;10.230;2023-06-26T05:31:03;26.10;95.50
45765;DHT22;31474;45.332;10.230;2023-06-26T05:33:31;26.20;95.60
45765;DHT22;31474;45.332;10.230;2023-06-26T05:36:00;26.20;95.40
45765;DHT22;31474;45.332;10.230;2023-06-26T05:38:27;26.20;95.70
45765;DHT22;31474;45.332;10.230;2023-06-26T05:40:53;26.30;95.40
45765;DHT22;31474;45.332;10.230;2023-06-26T05:43:19;26.40;95.50
45765;DHT22;31474;45.332;10.230;2023-06-26T05:45:47;26.40;95.50
45765;DHT22;31474;45.332;10.230;2023-06-26T05:48:13;26.50;95.60
45765;DHT22;31474;45.332;10.230;2023-06-26T05:50:39;26.60;95.30
45765;DHT22;31474;45.332;10.230;2023-06-26T05:53:07;26.80;95.20
45765;DHT22;31474;45.332;10.230;2023-06-26T05:55:33;26.90;94.90
45765;DHT22;31474;45.332;10.230;2023-06-26T05:57:59;27.10;94.90
45765;DHT22;31474;45.332;10.230;2023-06-26T06:00:27;27.30;94.80
45765;DHT22;31474;45.332;10.230;2023-06-26T06:02:53;27.50;94.60
45765;DHT22;31474;45.332;10.230;2023-06-26T06:05:22;27.40;94.60
45765;DHT22;31474;45.332;10.230;2023-06-26T06:07:48;27.50;94.60
45765;DHT22;31474;45.332;10.230;2023-06-26T06:10:14;27.60;94.50
45765;DHT22;31474;45.332;10.230;2023-06-26T06:12:40;27.60;94.30
45765;DHT22;31474;45.332;10.230;2023-06-26T06:15:06;27.80;94.70
45765;DHT22;31474;45.332;10.230;2023-06-26T06:17:32;27.90;94.50
45765;DHT22;31474;45.332;10.230;2023-06-26T06:19:57;28.00;94.50
45765;DHT22;31474;45.332;10.230;2023-06-26T06:22:23;28.20;94.60
45765;DHT22;31474;45.332;10.230;2023-06-26T06:24:50;28.20;94.20
45765;DHT22;31474;45.332;10.230;2023-06-26T06:27:16;28.30;94.10
45765;DHT22;31474;45.332;10.230;2023-06-26T06:29:41;28.50;93.80
45765;DHT22;31474;45.332;10.230;2023-06-26T06:32:07;28.50;93.90
45765;DHT22;31474;45.332;10.230;2023-06-26T06:34:33;28.40;93.70
45765;DHT22;31474;45.332;10.230;2023-06-26T06:36:59;28.40;93.80
45765;DHT22;31474;45.332;10.230;2023-06-26T06:39:25;28.30;93.80
45765;DHT22;31474;45.332;10.230;2023-06-26T06:41:51;28.50;94.10
45765;DHT22;31474;45.332;10.230;2023-06-26T06:44:16;28.50;93.80
45765;DHT22;31474;45.332;10.230;2023-06-26T06:46:42;28.70;93.90
45765;DHT22;31474;45.332;10.230;2023-06-26T06:49:08;28.90;93.60
45765;DHT22;31474;45.332;10.230;2023-06-26T06:51:34;29.00;93.40
45765;DHT22;31474;45.332;10.230;2023-06-26T06:54:00;29.00;93.10
45765;DHT22;31474;45.332;10.230;2023-06-26T06:56:26;29.10;93.20
45765;DHT22;31474;45.332;10.230;2023-06-26T06:58:52;29.10;92.40
45765;DHT22;31474;45.332;10.230;2023-06-26T07:01:17;29.10;92.40
45765;DHT22;31474;45.332;10.230;2023-06-26T07:03:43;29.20;92.90
45765;DHT22;31474;45.332;10.230;2023-06-26T07:06:08;29.20;92.30
45765;DHT22;31474;45.332;10.230;2023-06-26T07:08:34;29.30;92.30
45765;DHT22;31474;45.332;10.230;2023-06-26T07:11:00;29.30;92.10
45765;DHT22;31474;45.332;10.230;2023-06-26T07:13:26;29.40;92.30
45765;DHT22;31474;45.332;10.230;2023-06-26T07:15:52;29.50;92.10
45765;DHT22;31474;45.332;10.230;2023-06-26T07:18:18;29.60;92.10
45765;DHT22;31474;45.332;10.230;2023-06-26T07:20:43;29.70;91.10
45765;DHT22;31474;45.332;10.230;2023-06-26T07:23:09;29.70;91.60
45765;DHT22;31474;45.332;10.230;2023-06-26T07:25:36;29.70;90.90
45765;DHT22;31474;45.332;10.230;2023-06-26T07:28:02;29.90;91.30
45765;DHT22;31474;45.332;10.230;2023-06-26T07:30:28;30.10;91.00
45765;DHT22;31474;45.332;10.230;2023-06-26T07:32:54;30.20;89.00
45765;DHT22;31474;45.332;10.230;2023-06-26T07:35:19;30.20;89.10
45765;DHT22;31474;45.332;10.230;2023-06-26T07:37:45;30.30;90.50
45765;DHT22;31474;45.332;10.230;2023-06-26T07:40:11;30.60;89.60
45765;DHT22;31474;45.332;10.230;2023-06-26T07:42:37;30.50;89.50
45765;DHT22;31474;45.332;10.230;2023-06-26T07:45:04;30.60;90.10
45765;DHT22;31474;45.332;10.230;2023-06-26T07:47:37;30.70;90.30
45765;DHT22;31474;45.332;10.230;2023-06-26T07:50:03;30.90;90.70
45765;DHT22;31474;45.332;10.230;2023-06-26T07:52:29;31.10;90.40
45765;DHT22;31474;45.332;10.230;2023-06-26T07:54:56;31.20;90.30
45765;DHT22;31474;45.332;10.230;2023-06-26T07:57:22;31.20;89.20
45765;DHT22;31474;45.332;10.230;2023-06-26T07:59:48;31.20;87.50
45765;DHT22;31474;45.332;10.230;2023-06-26T08:02:13;31.30;89.00
45765;DHT22;31474;45.332;10.230;2023-06-26T08:04:39;31.30;88.10
45765;DHT22;31474;45.332;10.230;2023-06-26T08:07:05;31.40;87.70
45765;DHT22;31474;45.332;10.230;2023-06-26T08:09:31;31.50;86.70
45765;DHT22;31474;45.332;10.230;2023-06-26T08:11:58;31.50;85.50
45765;DHT22;31474;45.332;10.230;2023-06-26T08:14:24;31.70;85.30
45765;DHT22;31474;45.332;10.230;2023-06-26T08:16:50;31.60;81.30
45765;DHT22;31474;45.332;10.230;2023-06-26T08:19:16;31.60;83.60
45765;DHT22;31474;45.332;10.230;2023-06-26T08:21:43;31.90;84.60
45765;DHT22;31474;45.332;10.230;2023-06-26T08:24:10;32.10;83.80
45765;DHT22;31474;45.332;10.230;2023-06-26T08:26:36;32.40;85.20
45765;DHT22;31474;45.332;10.230;2023-06-26T08:29:03;32.50;82.90
45765;DHT22;31474;45.332;10.230;2023-06-26T08:31:37;32.50;84.10
45765;DHT22;31474;45.332;10.230;2023-06-26T08:34:04;32.60;82.90
45765;DHT22;31474;45.332;10.230;2023-06-26T08:36:31;32.80;83.60
45765;DHT22;31474;45.332;10.230;2023-06-26T08:38:57;32.90;83.70
45765;DHT22;31474;45.332;10.230;2023-06-26T08:41:23;32.80;80.40
45765;DHT22;31474;45.332;10.230;2023-06-26T08:43:49;32.80;78.00
45765;DHT22;31474;45.332;10.230;2023-06-26T08:46:16;32.70;80.70
45765;DHT22;31474;45.332;10.230;2023-06-26T08:48:48;32.80;81.90
45765;DHT22;31474;45.332;10.230;2023-06-26T08:51:16;33.00;80.60
45765;DHT22;31474;45.332;10.230;2023-06-26T08:53:59;33.00;80.90
45765;DHT22;31474;45.332;10.230;2023-06-26T08:56:28;33.20;81.40
45765;DHT22;31474;45.332;10.230;2023-06-26T08:58:57;33.40;81.10
45765;DHT22;31474;45.332;10.230;2023-06-26T09:01:24;33.40;82.90
45765;DHT22;31474;45.332;10.230;2023-06-26T09:03:51;33.50;82.50
45765;DHT22;31474;45.332;10.230;2023-06-26T09:06:17;33.50;81.80
45765;DHT22;31474;45.332;10.230;2023-06-26T09:08:44;33.40;81.50
45765;DHT22;31474;45.332;10.230;2023-06-26T09:11:09;33.20;80.20
45765;DHT22;31474;45.332;10.230;2023-06-26T09:13:35;33.00;80.60
45765;DHT22;31474;45.332;10.230;2023-06-26T09:16:08;33.00;81.50
45765;DHT22;31474;45.332;10.230;2023-06-26T09:18:34;33.10;80.20
45765;DHT22;31474;45.332;10.230;2023-06-26T09:21:00;33.00;80.50
45765;DHT22;31474;45.332;10.230;2023-06-26T09:23:26;32.90;81.10
45765;DHT22;31474;45.332;10.230;2023-06-26T09:25:53;32.90;81.80
45765;DHT22;31474;45.332;10.230;2023-06-26T09:28:19;33.20;83.90
45765;DHT22;31474;45.332;10.230;2023-06-26T09:30:45;33.30;81.20
45765;DHT22;31474;45.332;10.230;2023-06-26T09:33:19;33.20;80.70
45765;DHT22;31474;45.332;10.230;2023-06-26T09:35:46;33.00;78.30
45765;DHT22;31474;45.332;10.230;2023-06-26T09:38:12;33.10;82.30
45765;DHT22;31474;45.332;10.230;2023-06-26T09:40:39;33.20;83.10
45765;DHT22;31474;45.332;10.230;2023-06-26T09:43:05;33.40;81.40
45765;DHT22;31474;45.332;10.230;2023-06-26T09:45:35;33.40;80.60
45765;DHT22;31474;45.332;10.230;2023-06-26T09:48:05;33.40;79.80
45765;DHT22;31474;45.332;10.230;2023-06-26T09:50:34;33.40;80.60
45765;DHT22;31474;45.332;10.230;2023-06-26T09:53:10;33.50;81.20
45765;DHT22;31474;45.332;10.230;2023-06-26T09:55:36;33.60;80.70
45765;DHT22;31474;45.332;10.230;2023-06-26T09:58:03;33.70;82.50
45765;DHT22;31474;45.332;10.230;2023-06-26T10:00:30;33.70;80.00
45765;DHT22;31474;45.332;10.230;2023-06-26T10:02:56;33.70;82.30
45765;DHT22;31474;45.332;10.230;2023-06-26T10:05:22;33.70;80.60
45765;DHT22;31474;45.332;10.230;2023-06-26T10:07:48;33.60;80.70
45765;DHT22;31474;45.332;10.230;2023-06-26T10:10:15;33.70;82.50
45765;DHT22;31474;45.332;10.230;2023-06-26T10:12:43;33.80;81.30
45765;DHT22;31474;45.332;10.230;2023-06-26T10:15:10;33.70;79.40
45765;DHT22;31474;45.332;10.230;2023-06-26T10:17:39;33.70;80.00
45765;DHT22;31474;45.332;10.230;2023-06-26T10:20:08;33.60;79.70
45765;DHT22;31474;45.332;10.230;2023-06-26T10:22:45;33.40;78.90
45765;DHT22;31474;45.332;10.230;2023-06-26T10:25:14;33.30;77.50
45765;DHT22;31474;45.332;10.230;2023-06-26T10:27:45;33.20;77.50
45765;DHT22;31474;45.332;10.230;2023-06-26T10:30:19;33.20;78.50
45765;DHT22;31474;45.332;10.230;2023-06-26T10:32:46;33.10;77.30
45765;DHT22;31474;45.332;10.230;2023-06-26T10:35:13;33.00;77.80
45765;DHT22;31474;45.332;10.230;2023-06-26T10:37:47;32.80;79.20
45765;DHT22;31474;45.332;10.230;2023-06-26T10:40:15;33.00;78.00
45765;DHT22;31474;45.332;10.230;2023-06-26T10:42:46;33.00;79.30
45765;DHT22;31474;45.332;10.230;2023-06-26T10:45:20;33.00;79.00
45765;DHT22;31474;45.332;10.230;2023-06-26T10:47:48;33.10;77.70
45765;DHT22;31474;45.332;10.230;2023-06-26T10:55:55;32.80;75.40
45765;DHT22;31474;45.332;10.230;2023-06-26T10:58:41;32.80;78.30
45765;DHT22;31474;45.332;10.230;2023-06-26T11:01:18;32.90;76.60
45765;DHT22;31474;45.332;10.230;2023-06-26T11:04:00;33.00;77.50
45765;DHT22;31474;45.332;10.230;2023-06-26T11:06:29;32.90;75.50
45765;DHT22;31474;45.332;10.230;2023-06-26T11:14:18;33.00;76.40
45765;DHT22;31474;45.332;10.230;2023-06-26T11:16:44;33.10;78.10
45765;DHT22;31474;45.332;10.230;2023-06-26T11:19:11;33.30;77.20
45765;DHT22;31474;45.332;10.230;2023-06-26T11:21:40;33.10;76.60
45765;DHT22;31474;45.332;10.230;2023-06-26T11:24:10;33.10;76.10
45765;DHT22;31474;45.332;10.230;2023-06-26T11:26:43;33.20;76.80
45765;DHT22;31474;45.332;10.230;2023-06-26T11:29:10;33.10;76.10
45765;DHT22;31474;45.332;10.230;2023-06-26T11:31:41;33.20;75.30
45765;DHT22;31474;45.332;10.230;2023-06-26T11:34:11;33.20;76.70
45765;DHT22;31474;45.332;10.230;2023-06-26T11:36:42;33.30;79.10
45765;DHT22;31474;45.332;10.230;2023-06-26T11:39:10;33.40;76.50
45765;DHT22;31474;45.332;10.230;2023-06-26T11:41:37;33.50;80.60
45765;DHT22;31474;45.332;10.230;2023-06-26T11:44:08;33.60;78.30
45765;DHT22;31474;45.332;10.230;2023-06-26T11:46:37;33.60;77.20
45765;DHT22;31474;45.332;10.230;2023-06-26T11:49:04;33.60;78.40
45765;DHT22;31474;45.332;10.230;2023-06-26T11:51:30;33.70;78.60
45765;DHT22;31474;45.332;10.230;2023-06-26T11:53:55;33.80;78.30
45765;DHT22;31474;45.332;10.230;2023-06-26T11:56:21;33.80;79.80
45765;DHT22;31474;45.332;10.230;2023-06-26T11:59:11;33.70;78.70
45765;DHT22;31474;45.332;10.230;2023-06-26T12:01:41;33.70;76.30
45765;DHT22;31474;45.332;10.230;2023-06-26T12:04:09;33.60;78.50
45765;DHT22;31474;45.332;10.230;2023-06-26T12:06:40;33.70;78.90
45765;DHT22;31474;45.332;10.230;2023-06-26T12:09:08;33.70;77.80
45765;DHT22;31474;45.332;10.230;2023-06-26T12:11:36;33.80;79.80
45765;DHT22;31474;45.332;10.230;2023-06-26T12:14:04;33.90;79.50
45765;DHT22;31474;45.332;10.230;2023-06-26T12:16:30;33.90;78.40
45765;DHT22;31474;45.332;10.230;2023-06-26T12:19:00;33.90;78.30
45765;DHT22;31474;45.332;10.230;2023-06-26T12:24:09;33.90;76.50
45765;DHT22;31474;45.332;10.230;2023-06-26T12:26:36;33.60;76.40
45765;DHT22;31474;45.332;10.230;2023-06-26T12:29:06;33.50;77.80
45765;DHT22;31474;45.332;10.230;2023-06-26T12:31:32;33.60;77.50
45765;DHT22;31474;45.332;10.230;2023-06-26T12:33:59;33.60;77.90
45765;DHT22;31474;45.332;10.230;2023-06-26T12:36:25;33.60;78.80
45765;DHT22;31474;45.332;10.230;2023-06-26T12:38:53;33.80;80.30
45765;DHT22;31474;45.332;10.230;2023-06-26T12:41:19;33.70;79.10
45765;DHT22;31474;45.332;10.230;2023-06-26T12:43:46;33.80;78.20
45765;DHT22;31474;45.332;10.230;2023-06-26T12:46:12;33.80;79.00
45765;DHT22;31474;45.332;10.230;2023-06-26T12:51:16;33.70;76.70
45765;DHT22;31474;45.332;10.230;2023-06-26T12:53:42;33.60;76.20
45765;DHT22;31474;45.332;10.230;2023-06-26T12:56:11;33.50;75.30
45765;DHT22;31474;45.332;10.230;2023-06-26T12:58:37;33.40;76.10
45765;DHT22;31474;45.332;10.230;2023-06-26T13:01:04;33.40;77.30
45765;DHT22;31474;45.332;10.230;2023-06-26T13:03:31;33.50;77.80
45765;DHT22;31474;45.332;10.230;2023-06-26T13:05:57;33.60;79.20
45765;DHT22;31474;45.332;10.230;2023-06-26T13:08:22;33.70;78.10
45765;DHT22;31474;45.332;10.230;2023-06-26T13:10:48;33.80;77.70
45765;DHT22;31474;45.332;10.230;2023-06-26T13:13:14;33.80;78.70
45765;DHT22;31474;45.332;10.230;2023-06-26T13:15:39;33.80;77.10
45765;DHT22;31474;45.332;10.230;2023-06-26T13:18:05;33.80;77.80
45765;DHT22;31474;45.332;10.230;2023-06-26T13:20:31;33.70;75.80
45765;DHT22;31474;45.332;10.230;2023-06-26T13:22:57;33.70;78.10
45765;DHT22;31474;45.332;10.230;2023-06-26T13:25:23;33.70;78.70
45765;DHT22;31474;45.332;10.230;2023-06-26T13:27:48;33.80;77.40
45765;DHT22;31474;45.332;10.230;2023-06-26T13:30:15;33.90;78.40
45765;DHT22;31474;45.332;10.230;2023-06-26T13:32:43;33.90;76.50
45765;DHT22;31474;45.332;10.230;2023-06-26T13:35:09;33.90;77.00
45765;DHT22;31474;45.332;10.230;2023-06-26T13:37:35;33.80;77.80
45765;DHT22;31474;45.332;10.230;2023-06-26T13:40:02;33.80;77.20
45765;DHT22;31474;45.332;10.230;2023-06-26T13:42:28;33.90;77.30
45765;DHT22;31474;45.332;10.230;2023-06-26T13:44:54;33.90;77.30
45765;DHT22;31474;45.332;10.230;2023-06-26T13:47:20;33.90;77.50
45765;DHT22;31474;45.332;10.230;2023-06-26T13:49:46;33.80;77.30
45765;DHT22;31474;45.332;10.230;2023-06-26T13:52:12;33.80;76.80
45765;DHT22;31474;45.332;10.230;2023-06-26T13:54:38;33.80;76.90
45765;DHT22;31474;45.332;10.230;2023-06-26T13:57:06;33.70;76.80
45765;DHT22;31474;45.332;10.230;2023-06-26T13:59:32;33.60;76.90
45765;DHT22;31474;45.332;10.230;2023-06-26T14:01:58;33.70;78.90
45765;DHT22;31474;45.332;10.230;2023-06-26T14:04:25;33.80;78.00
45765;DHT22;31474;45.332;10.230;2023-06-26T14:06:50;33.80;77.90
45765;DHT22;31474;45.332;10.230;2023-06-26T14:09:16;33.80;77.60
45765;DHT22;31474;45.332;10.230;2023-06-26T14:11:43;33.80;77.60
45765;DHT22;31474;45.332;10.230;2023-06-26T14:14:08;33.80;77.30
45765;DHT22;31474;45.332;10.230;2023-06-26T14:16:34;33.80;77.90
45765;DHT22;31474;45.332;10.230;2023-06-26T14:19:00;33.80;77.70
45765;DHT22;31474;45.332;10.230;2023-06-26T14:21:25;33.80;77.70
45765;DHT22;31474;45.332;10.230;2023-06-26T14:23:53;33.70;76.80
45765;DHT22;31474;45.332;10.230;2023-06-26T14:26:19;33.70;77.70
45765;DHT22;31474;45.332;10.230;2023-06-26T14:28:44;33.70;78.40
45765;DHT22;31474;45.332;10.230;2023-06-26T14:31:10;33.70;78.80
45765;DHT22;31474;45.332;10.230;2023-06-26T14:33:36;33.70;77.60
45765;DHT22;31474;45.332;10.230;2023-06-26T14:36:02;33.60;77.20
45765;DHT22;31474;45.332;10.230;2023-06-26T14:38:28;33.60;77.20
45765;DHT22;31474;45.332;10.230;2023-06-26T14:40:53;33.60;78.00
45765;DHT22;31474;45.332;10.230;2023-06-26T14:43:19;33.60;77.60
45765;DHT22;31474;45.332;10.230;2023-06-26T14:45:45;33.60;78.70
45765;DHT22;31474;45.332;10.230;2023-06-26T14:48:10;33.70;78.50
45765;DHT22;31474;45.332;10.230;2023-06-26T14:50:36;33.60;77.60
45765;DHT22;31474;45.332;10.230;2023-06-26T14:53:01;33.70;78.10
45765;DHT22;31474;45.332;10.230;2023-06-26T14:55:28;33.70;77.80
45765;DHT22;31474;45.332;10.230;2023-06-26T14:57:53;33.70;77.90
45765;DHT22;31474;45.332;10.230;2023-06-26T15:00:19;33.70;78.70
45765;DHT22;31474;45.332;10.230;2023-06-26T15:02:45;33.70;78.20
45765;DHT22;31474;45.332;10.230;2023-06-26T15:05:10;33.70;77.90
45765;DHT22;31474;45.332;10.230;2023-06-26T15:07:36;33.80;78.00
45765;DHT22;31474;45.332;10.230;2023-06-26T15:10:02;33.60;77.50
45765;DHT22;31474;45.332;10.230;2023-06-26T15:12:28;33.60;78.30
45765;DHT22;31474;45.332;10.230;2023-06-26T15:14:53;33.60;78.90
45765;DHT22;31474;45.332;10.230;2023-06-26T15:17:19;33.60;78.20
45765;DHT22;31474;45.332;10.230;2023-06-26T15:19:45;33.60;78.80
45765;DHT22;31474;45.332;10.230;2023-06-26T15:22:10;33.60;78.50
45765;DHT22;31474;45.332;10.230;2023-06-26T15:24:36;33.60;78.00
45765;DHT22;31474;45.332;10.230;2023-06-26T15:27:02;33.50;77.60
45765;DHT22;31474;45.332;10.230;2023-06-26T15:29:28;33.50;78.00
45765;DHT22;31474;45.332;10.230;2023-06-26T15:31:53;33.50;77.20
45765;DHT22;31474;45.332;10.230;2023-06-26T15:34:19;33.40;77.70
45765;DHT22;31474;45.332;10.230;2023-06-26T15:36:45;33.50;78.50